Time;durP1;ratioP1;P1;durP2;ratioP2;P2;SDS_P1;SDS_P2;PMS_P1;PMS_P2;Temp;Humidity;BMP_temperature;BMP_pressure;BME280_temperature;BME280_humidity;BME280_pressure;Samples;Min_cycle;Max_cycle;Signal;HPM_P1;HPM_P2
2022/08/17 00:01:04;;;;;;;;;;;;;;;20.36;100.00;100873.84;6544404;22;19907;-81
2022/08/17 00:03:37;;;;;;;;;;;;;;;20.31;100.00;100876.34;6543393;22;19904;-81
2022/08/17 00:06:17;;;;;;;;;;;;;;;20.30;100.00;100876.53;6516749;22;19915;-81
2022/08/17 00:08:56;;;;;;;;;;;;;;;20.28;100.00;100868.63;6547099;22;20373;-82
2022/08/17 00:11:38;;;;;;;;;;;;;;;20.28;100.00;100863.22;6570098;22;19947;-82
2022/08/17 00:14:12;;;;;;;;;;;;;;;20.31;100.00;100865.50;6567558;22;19930;-80
2022/08/17 00:16:45;;;;;;;;;;;;;;;20.33;100.00;100854.47;6568222;22;19907;-80
2022/08/17 00:19:20;;;;;;;;;;;;;;;20.35;100.00;100855.09;6539253;22;19954;-80
2022/08/17 00:21:55;;;;;;;;;;;;;;;20.35;100.00;100845.13;6553618;22;19912;-80
2022/08/17 00:24:27;;;;;;;;;;;;;;;20.38;100.00;100841.97;6542985;22;20409;-81
2022/08/17 00:26:58;;;;;;;;;;;;;;;20.37;100.00;100839.47;6542745;22;19910;-80
2022/08/17 00:29:29;;;;;;;;;;;;;;;20.38;100.00;100836.56;6542905;22;19907;-81
2022/08/17 00:32:01;;;;;;;;;;;;;;;20.38;100.00;100835.72;6543012;22;20242;-82
2022/08/17 00:34:32;;;;;;;;;;;;;;;20.41;100.00;100835.31;6542178;22;19946;-82
2022/08/17 00:37:03;;;;;;;;;;;;;;;20.44;100.00;100834.06;6541875;22;19929;-81
2022/08/17 00:39:34;;;;;;;;;;;;;;;20.44;100.00;100832.22;6541489;22;19935;-82
2022/08/17 00:42:16;;;;;;;;;;;;;;;20.45;100.00;100828.44;6514819;22;19914;-82
2022/08/17 00:44:48;;;;;;;;;;;;;;;20.46;100.00;100832.81;6515378;22;19903;-82
2022/08/17 00:47:19;;;;;;;;;;;;;;;20.47;100.00;100836.34;6540593;22;20720;-81
2022/08/17 00:49:50;;;;;;;;;;;;;;;20.49;100.00;100832.38;6541517;22;19962;-83
2022/08/17 00:52:26;;;;;;;;;;;;;;;20.50;100.00;100833.25;6541341;22;19911;-81
2022/08/17 00:54:58;;;;;;;;;;;;;;;20.49;100.00;100831.56;6541299;22;19953;-81
2022/08/17 00:57:31;;;;;;;;;;;;;;;20.48;100.00;100832.63;6540358;22;19971;-81
2022/08/17 01:00:07;;;;;;;;;;;;;;;20.48;100.00;100833.44;6540808;22;19915;-81
2022/08/17 01:02:41;;;;;;;;;;;;;;;20.46;100.00;100831.97;6540955;22;19914;-82
2022/08/17 01:05:18;;;;;;;;;;;;;;;20.46;100.00;100834.69;6539730;22;19957;-81
2022/08/17 01:07:50;;;;;;;;;;;;;;;20.46;100.00;100831.97;6541115;22;19915;-81
2022/08/17 01:10:38;;;;;;;;;;;;;;;20.45;100.00;100823.03;6541316;22;19903;-82
2022/08/17 01:13:10;;;;;;;;;;;;;;;20.46;100.00;100835.53;6540907;22;19915;-82
2022/08/17 01:16:01;;;;;;;;;;;;;;;20.46;100.00;100830.13;6541515;22;19904;-82
2022/08/17 01:18:33;;;;;;;;;;;;;;;20.47;100.00;100828.22;6541725;22;19911;-82
2022/08/17 01:21:09;;;;;;;;;;;;;;;20.45;100.00;100820.31;6542137;22;20246;-82
2022/08/17 01:23:41;;;;;;;;;;;;;;;20.44;100.00;100817.81;6542268;22;19910;-83
2022/08/17 01:26:12;;;;;;;;;;;;;;;20.42;100.00;100817.19;6542853;22;19907;-82
2022/08/17 01:28:44;;;;;;;;;;;;;;;20.40;100.00;100811.97;6542768;22;19903;-81
2022/08/17 01:31:15;;;;;;;;;;;;;;;20.37;100.00;100806.97;6541305;22;19907;-82
2022/08/17 01:33:46;;;;;;;;;;;;;;;20.35;100.00;100807.19;6542772;22;19907;-82
2022/08/17 01:36:17;;;;;;;;;;;;;;;20.32;100.00;100804.91;6543397;22;20246;-82
2022/08/17 01:38:49;;;;;;;;;;;;;;;20.30;100.00;100804.28;6541831;22;19912;-83
2022/08/17 01:41:20;;;;;;;;;;;;;;;20.26;100.00;100804.88;6541850;22;19907;-82
2022/08/17 01:43:55;;;;;;;;;;;;;;;20.23;100.00;100805.28;6542783;22;19907;-82
2022/08/17 01:46:29;;;;;;;;;;;;;;;20.18;100.00;100806.75;6542288;22;19915;-82
2022/08/17 01:49:04;;;;;;;;;;;;;;;20.17;100.00;100801.53;6542420;22;20370;-82
2022/08/17 01:51:35;;;;;;;;;;;;;;;20.13;100.00;100795.72;6543638;22;19954;-82
2022/08/17 01:54:11;;;;;;;;;;;;;;;20.09;100.00;100797.19;6541506;22;19904;-82
2022/08/17 01:56:45;;;;;;;;;;;;;;;20.02;100.00;100799.88;6542042;22;19946;-82
2022/08/17 01:59:17;;;;;;;;;;;;;;;20.01;100.00;100797.38;6542753;22;19915;-82
2022/08/17 02:01:49;;;;;;;;;;;;;;;20.00;100.00;100792.97;6540711;22;19907;-81
2022/08/17 02:04:20;;;;;;;;;;;;;;;19.97;100.00;100788.81;6540962;22;20268;-82
2022/08/17 02:06:51;;;;;;;;;;;;;;;19.94;100.00;100794.63;6541754;22;19915;-82
2022/08/17 02:09:24;;;;;;;;;;;;;;;19.94;100.00;100789.22;6514156;22;19914;-82
2022/08/17 02:11:57;;;;;;;;;;;;;;;19.91;100.00;100783.38;6541222;22;20314;-82
2022/08/17 02:14:28;;;;;;;;;;;;;;;19.89;100.00;100791.72;6540774;22;19903;-82
2022/08/17 02:16:59;;;;;;;;;;;;;;;19.86;100.00;100791.28;6541669;22;19914;-82
2022/08/17 02:19:31;;;;;;;;;;;;;;;19.82;100.00;100786.28;6541863;22;19915;-82
2022/08/17 02:22:02;;;;;;;;;;;;;;;19.78;100.00;100792.31;6541240;22;19986;-82
2022/08/17 02:24:35;;;;;;;;;;;;;;;19.72;100.00;100790.38;6541341;22;19957;-82
2022/08/17 02:27:06;;;;;;;;;;;;;;;19.62;100.00;100791.63;6540447;22;20281;-82
2022/08/17 02:29:37;;;;;;;;;;;;;;;19.54;100.00;100788.25;6541202;22;19910;-82
2022/08/17 02:32:19;;;;;;;;;;;;;;;19.42;100.00;100788.00;6541398;22;20389;-82
2022/08/17 02:34:50;;;;;;;;;;;;;;;19.30;100.00;100784.22;6541104;22;19994;-82
2022/08/17 02:37:22;;;;;;;;;;;;;;;19.21;100.00;100780.84;6514392;22;19931;-81
2022/08/17 02:39:55;;;;;;;;;;;;;;;19.15;100.00;100784.34;6541072;22;19994;-81
2022/08/17 02:42:28;;;;;;;;;;;;;;;19.10;100.00;100784.94;6514085;22;19911;-81
2022/08/17 02:45:00;;;;;;;;;;;;;;;19.04;100.00;100770.38;6542009;22;19908;-81
2022/08/17 02:47:31;;;;;;;;;;;;;;;18.97;100.00;100777.63;6542489;22;20250;-81
2022/08/17 02:50:04;;;;;;;;;;;;;;;18.92;100.00;100779.25;6540575;22;20034;-81
2022/08/17 02:52:39;;;;;;;;;;;;;;;18.87;100.00;100775.25;6542208;22;19926;-81
2022/08/17 02:55:13;;;;;;;;;;;;;;;18.83;100.00;100773.16;6541619;22;19908;-81
2022/08/17 02:57:45;;;;;;;;;;;;;;;18.79;100.00;100769.16;6540591;22;20038;-81
2022/08/17 03:00:20;;;;;;;;;;;;;;;18.73;100.00;100773.47;6541014;22;19911;-81
2022/08/17 03:02:51;;;;;;;;;;;;;;;18.67;100.00;100767.00;6541013;22;19915;-82
2022/08/17 03:05:24;;;;;;;;;;;;;;;18.60;100.00;100765.28;6542298;22;19904;-82
2022/08/17 03:07:55;;;;;;;;;;;;;;;18.55;100.00;100765.03;6541353;22;19907;-82
2022/08/17 03:10:28;;;;;;;;;;;;;;;18.50;100.00;100761.06;6541694;22;19907;-82
2022/08/17 03:13:00;;;;;;;;;;;;;;;18.46;100.00;100762.50;6542744;22;19907;-83
2022/08/17 03:15:32;;;;;;;;;;;;;;;18.42;100.00;100749.56;6541952;22;19914;-83
2022/08/17 03:18:03;;;;;;;;;;;;;;;18.38;100.00;100756.41;6541922;22;19903;-83
2022/08/17 03:20:35;;;;;;;;;;;;;;;18.34;100.00;100758.66;6542050;22;19912;-82
2022/08/17 03:23:07;;;;;;;;;;;;;;;18.33;100.00;100754.28;6541920;22;20222;-82
2022/08/17 03:25:42;;;;;;;;;;;;;;;18.36;100.00;100761.19;6542323;22;19904;-82
2022/08/17 03:28:16;;;;;;;;;;;;;;;18.39;100.00;100763.47;6541005;22;19907;-82
2022/08/17 03:30:49;;;;;;;;;;;;;;;18.46;100.00;100762.50;6541859;22;20593;-81
2022/08/17 03:33:21;;;;;;;;;;;;;;;18.48;100.00;100770.41;6541696;22;19974;-81
2022/08/17 03:35:52;;;;;;;;;;;;;;;18.50;100.00;100769.16;6541734;22;19930;-82
2022/08/17 03:38:23;;;;;;;;;;;;;;;18.56;100.00;100772.13;6514463;22;19915;-81
2022/08/17 03:40:54;;;;;;;;;;;;;;;18.58;100.00;100773.56;6513514;22;20388;-81
2022/08/17 03:43:27;;;;;;;;;;;;;;;18.60;100.00;100759.88;6551842;22;19912;-80
2022/08/17 03:57:22;;;;;;;;;;;;;;;18.87;100.00;100783.38;6539139;22;19904;-82
2022/08/17 03:59:54;;;;;;;;;;;;;;;18.87;100.00;100783.38;6541495;22;19950;-81
2022/08/17 04:02:30;;;;;;;;;;;;;;;18.88;100.00;100787.75;6542446;22;20234;-81
2022/08/17 04:05:02;;;;;;;;;;;;;;;18.88;100.00;100793.16;6541976;22;19919;-81
2022/08/17 04:07:33;;;;;;;;;;;;;;;18.91;100.00;100807.28;6542039;22;19911;-81
2022/08/17 04:10:04;;;;;;;;;;;;;;;18.88;100.00;100827.44;6542697;22;19903;-82
2022/08/17 04:13:05;;;;;;;;;;;;;;;18.81;100.00;100838.19;6516051;22;19951;-82
2022/08/17 04:15:36;;;;;;;;;;;;;;;18.81;100.00;100848.13;6502944;22;19907;-81
2022/08/17 04:18:07;;;;;;;;;;;;;;;18.78;100.00;100838.56;6515705;22;19979;-82
2022/08/17 04:20:38;;;;;;;;;;;;;;;18.78;100.00;100838.56;6515109;22;19911;-81
2022/08/17 04:23:11;;;;;;;;;;;;;;;18.78;100.00;100833.16;6542638;22;19907;-82
2022/08/17 04:25:47;;;;;;;;;;;;;;;18.79;100.00;100834.00;6515192;22;19957;-81
2022/08/17 04:28:19;;;;;;;;;;;;;;;18.79;100.00;100845.63;6542446;22;20333;-81
2022/08/17 04:30:50;;;;;;;;;;;;;;;18.79;100.00;100848.31;6542073;22;19910;-81
2022/08/17 04:33:23;;;;;;;;;;;;;;;18.80;100.00;100843.78;6541451;22;19988;-81
2022/08/17 04:35:57;;;;;;;;;;;;;;;18.82;100.00;100863.34;6541548;22;19911;-81
2022/08/17 04:38:29;;;;;;;;;;;;;;;18.81;100.00;100864.34;6542168;22;19903;-81
2022/08/17 04:43:54;;;;;;;;;;;;;;;18.86;100.00;100878.13;6544053;22;20318;-81
2022/08/17 04:46:31;;;;;;;;;;;;;;;18.83;100.00;100875.84;6543747;22;20401;-81
2022/08/17 04:49:04;;;;;;;;;;;;;;;18.85;100.00;100892.69;6516486;22;19908;-81
2022/08/17 04:51:36;;;;;;;;;;;;;;;18.82;100.00;100874.16;6544478;22;19904;-82
2022/08/17 04:54:08;;;;;;;;;;;;;;;18.79;100.00;100890.72;6516773;22;19998;-81
2022/08/17 04:56:39;;;;;;;;;;;;;;;18.81;100.00;100861.66;6544669;22;19915;-81
2022/08/17 04:59:14;;;;;;;;;;;;;;;18.83;100.00;100881.25;6543595;22;19908;-81
2022/08/17 05:01:49;;;;;;;;;;;;;;;18.88;100.00;100862.56;6517113;22;19904;-81
2022/08/17 05:04:23;;;;;;;;;;;;;;;18.91;100.00;100867.56;6519671;22;19903;-81
2022/08/17 05:06:54;;;;;;;;;;;;;;;18.91;100.00;100869.44;6544887;22;19918;-81
2022/08/17 05:09:25;;;;;;;;;;;;;;;18.93;100.00;100870.91;6516275;22;20303;-82
2022/08/17 05:11:59;;;;;;;;;;;;;;;18.96;100.00;100858.88;6517144;22;19952;-81
2022/08/17 05:14:30;;;;;;;;;;;;;;;18.99;100.00;100853.09;6515793;22;19911;-81
2022/08/17 05:17:02;;;;;;;;;;;;;;;19.04;100.00;100859.56;6516505;22;19947;-81
2022/08/17 05:19:33;;;;;;;;;;;;;;;19.10;100.00;100857.94;6516707;22;19943;-82
2022/08/17 05:22:04;;;;;;;;;;;;;;;19.17;100.00;100861.50;6543970;22;19993;-81
2022/08/17 05:24:36;;;;;;;;;;;;;;;19.22;100.00;100869.03;6543652;22;19904;-81
2022/08/17 05:27:07;;;;;;;;;;;;;;;19.29;100.00;100856.38;6543439;22;19981;-81
2022/08/17 05:29:38;;;;;;;;;;;;;;;19.37;100.00;100864.34;6516651;22;19938;-81
2022/08/17 05:32:10;;;;;;;;;;;;;;;19.46;100.00;100855.03;6516828;22;19911;-82
2022/08/17 05:34:41;;;;;;;;;;;;;;;19.57;100.00;100858.19;6543514;22;19903;-81
2022/08/17 05:37:13;;;;;;;;;;;;;;;19.69;100.00;100856.59;6543623;22;19911;-82
2022/08/17 05:39:44;;;;;;;;;;;;;;;19.84;100.00;100851.03;6543236;22;19918;-81
2022/08/17 05:42:18;;;;;;;;;;;;;;;19.97;100.00;100851.09;6516629;22;19908;-82
2022/08/17 05:44:50;;;;;;;;;;;;;;;20.13;100.00;100851.75;6516512;22;19910;-81
2022/08/17 05:47:23;;;;;;;;;;;;;;;20.26;100.00;100853.63;6517441;22;19924;-81
2022/08/17 05:49:54;;;;;;;;;;;;;;;20.39;100.00;100850.94;6543236;22;20038;-82
2022/08/17 05:52:38;;;;;;;;;;;;;;;20.52;100.00;100845.53;6543801;22;19931;-82
2022/08/17 05:55:18;;;;;;;;;;;;;;;20.69;100.00;100847.88;6543818;22;19904;-82
2022/08/17 05:58:07;;;;;;;;;;;;;;;20.85;100.00;100850.13;6542829;22;20411;-81
2022/08/17 06:00:49;;;;;;;;;;;;;;;21.09;100.00;100858.63;6515877;22;19908;-82
2022/08/17 06:03:26;;;;;;;;;;;;;;;21.33;100.00;100857.94;6517943;22;19904;-81
2022/08/17 06:06:03;;;;;;;;;;;;;;;21.60;100.00;100862.47;6516357;22;19904;-81
2022/08/17 06:08:54;;;;;;;;;;;;;;;21.85;100.00;100866.13;6543657;22;19919;-81
2022/08/17 06:11:31;;;;;;;;;;;;;;;22.08;100.00;100862.88;6450713;22;19907;-82
2022/08/17 06:14:22;;;;;;;;;;;;;;;22.28;100.00;100860.06;6517183;22;19907;-81
2022/08/17 06:16:57;;;;;;;;;;;;;;;22.38;100.00;100856.84;6546498;22;19910;-82
2022/08/17 06:19:31;;;;;;;;;;;;;;;22.44;100.00;100861.41;6516471;22;20356;-82
2022/08/17 06:22:04;;;;;;;;;;;;;;;22.42;100.00;100863.53;6543329;22;19915;-80
2022/08/17 06:24:55;;;;;;;;;;;;;;;22.41;100.00;100874.63;6517819;22;19903;-80
2022/08/17 06:27:34;;;;;;;;;;;;;;;22.38;100.00;100881.31;6516993;22;19971;-80
2022/08/17 06:30:10;;;;;;;;;;;;;;;22.32;100.00;100876.78;6516927;22;19974;-80
2022/08/17 06:32:42;;;;;;;;;;;;;;;22.25;100.00;100884.09;6544067;22;19904;-81
2022/08/17 06:35:36;;;;;;;;;;;;;;;22.18;100.00;100883.31;6543529;22;19904;-81
2022/08/17 06:38:13;;;;;;;;;;;;;;;22.03;100.00;100892.56;6493090;22;19903;-81
2022/08/17 06:40:47;;;;;;;;;;;;;;;21.93;100.00;100894.09;6516759;22;19941;-81
2022/08/17 06:43:46;;;;;;;;;;;;;;;21.89;100.00;100891.78;6544054;22;19914;-81
2022/08/17 06:46:22;;;;;;;;;;;;;;;21.87;100.00;100887.66;6516802;22;19912;-81
2022/08/17 06:48:56;;;;;;;;;;;;;;;21.87;100.00;100893.06;6543602;22;20330;-81
2022/08/17 06:51:42;;;;;;;;;;;;;;;21.82;100.00;100898.31;6544388;22;19919;-81
2022/08/17 06:54:23;;;;;;;;;;;;;;;21.78;100.00;100905.25;6543072;22;20384;-81
2022/08/17 06:56:58;;;;;;;;;;;;;;;21.76;100.00;100910.06;6542932;22;20304;-80
2022/08/17 06:59:48;;;;;;;;;;;;;;;21.75;100.00;100911.91;6542689;22;19907;-81
2022/08/17 07:02:35;;;;;;;;;;;;;;;21.70;100.00;100914.44;6542952;22;19914;-81
2022/08/17 07:05:07;;;;;;;;;;;;;;;21.78;100.00;100911.50;6516638;22;19903;-81
2022/08/17 07:10:38;;;;;;;;;;;;;;;21.95;100.00;100911.00;6543046;22;20050;-81
2022/08/17 07:13:28;;;;;;;;;;;;;;;22.03;100.00;100913.47;6543582;22;19942;-80
2022/08/17 07:16:06;;;;;;;;;;;;;;;22.15;100.00;100916.34;6556652;22;19911;-80
2022/08/17 07:18:37;;;;;;;;;;;;;;;22.26;100.00;100926.50;6563035;22;19904;-80
2022/08/17 07:21:17;;;;;;;;;;;;;;;22.40;100.00;100922.69;6563679;22;19912;-80
2022/08/17 07:24:02;;;;;;;;;;;;;;;22.48;100.00;100921.59;6537929;22;19907;-80
2022/08/17 07:26:33;;;;;;;;;;;;;;;22.51;100.00;100914.88;6557846;22;19909;-81
2022/08/17 07:29:04;;;;;;;;;;;;;;;22.53;100.00;100913.63;6521812;22;19979;-81
2022/08/17 07:31:36;;;;;;;;;;;;;;;22.53;100.00;100918.19;6517932;22;19953;-80
2022/08/17 07:34:13;;;;;;;;;;;;;;;22.56;100.00;100920.50;6516993;22;20352;-81
2022/08/17 07:36:44;;;;;;;;;;;;;;;22.55;100.00;100930.53;6545270;22;19914;-81
2022/08/17 07:39:24;;;;;;;;;;;;;;;22.62;100.00;100934.03;6542560;22;20002;-81
2022/08/17 07:42:02;;;;;;;;;;;;;;;22.67;100.00;100944.25;6542874;22;19999;-81
2022/08/17 07:44:45;;;;;;;;;;;;;;;22.78;100.00;100938.09;6542839;22;19942;-81
2022/08/17 07:50:23;;;;;;;;;;;;;;;23.02;100.00;100941.88;6542648;22;20325;-81
2022/08/17 07:52:54;;;;;;;;;;;;;;;23.17;100.00;100944.28;6542239;22;20250;-81
2022/08/17 07:55:28;;;;;;;;;;;;;;;23.29;100.00;100941.66;6543495;22;19904;-81
2022/08/17 07:57:59;;;;;;;;;;;;;;;23.43;100.00;100938.81;6542254;22;19907;-81
2022/08/17 08:00:32;;;;;;;;;;;;;;;23.58;100.00;100939.28;6542804;22;19918;-82
2022/08/17 08:03:12;;;;;;;;;;;;;;;23.74;100.00;100938.66;6516508;22;20333;-81
2022/08/17 08:05:47;;;;;;;;;;;;;;;23.89;100.00;100948.38;6542605;22;19994;-81
2022/08/17 08:08:24;;;;;;;;;;;;;;;23.92;100.00;100937.84;6542610;22;20349;-81
2022/08/17 08:11:06;;;;;;;;;;;;;;;23.96;100.00;100939.03;6515436;22;20257;-81
2022/08/17 08:13:41;;;;;;;;;;;;;;;24.07;100.00;100939.34;6542871;22;19919;-81
2022/08/17 08:16:26;;;;;;;;;;;;;;;24.13;100.00;100939.25;6544187;22;19903;-81
2022/08/17 08:18:58;;;;;;;;;;;;;;;24.14;100.00;100940.94;6516452;22;20005;-81
2022/08/17 08:21:45;;;;;;;;;;;;;;;24.21;100.00;100945.44;6543957;22;19904;-81
2022/08/17 08:24:37;;;;;;;;;;;;;;;24.28;100.00;100943.44;6544366;22;20393;-80
2022/08/17 08:27:08;;;;;;;;;;;;;;;24.48;100.00;100935.81;6543697;22;20315;-81
2022/08/17 08:29:56;;;;;;;;;;;;;;;24.54;100.00;100923.19;6543582;22;19910;-81
2022/08/17 08:32:36;;;;;;;;;;;;;;;24.57;100.00;100921.91;6543943;22;19907;-81
2022/08/17 08:35:12;;;;;;;;;;;;;;;24.48;100.00;100918.66;6543635;22;19939;-80
2022/08/17 08:38:06;;;;;;;;;;;;;;;24.46;100.00;100918.06;6517276;22;20238;-80
2022/08/17 08:40:49;;;;;;;;;;;;;;;24.53;100.00;100918.78;6515837;22;19908;-81
2022/08/17 08:43:40;;;;;;;;;;;;;;;24.59;100.00;100920.59;6544096;22;19903;-80
2022/08/17 08:46:40;;;;;;;;;;;;;;;24.81;100.00;100931.78;6543313;22;19915;-80
2022/08/17 08:49:21;;;;;;;;;;;;;;;25.05;100.00;100942.72;6503605;22;19910;-81
2022/08/17 08:51:56;;;;;;;;;;;;;;;25.13;100.00;100957.91;6516740;22;19904;-80
2022/08/17 08:54:46;;;;;;;;;;;;;;;25.37;100.00;100972.41;6543693;22;19907;-81
2022/08/17 08:57:26;;;;;;;;;;;;;;;25.64;100.00;100967.28;6543695;22;20261;-80
2022/08/17 09:00:03;;;;;;;;;;;;;;;25.88;100.00;100972.69;6543078;22;19962;-81
2022/08/17 09:02:45;;;;;;;;;;;;;;;26.02;100.00;100964.03;6543162;22;19907;-81
2022/08/17 09:05:35;;;;;;;;;;;;;;;26.07;100.00;100971.50;6544020;22;20273;-81
2022/08/17 09:08:09;;;;;;;;;;;;;;;26.03;100.00;100965.69;6544089;22;20277;-81
2022/08/17 09:10:48;;;;;;;;;;;;;;;25.98;100.00;100959.28;6516306;22;19970;-81
2022/08/17 09:13:42;;;;;;;;;;;;;;;25.85;100.00;100965.81;6516838;22;20383;-81
2022/08/17 09:16:28;;;;;;;;;;;;;;;25.57;100.00;100961.13;6542566;22;19904;-81
2022/08/17 09:19:03;;;;;;;;;;;;;;;25.46;100.00;100960.06;6542579;22;19914;-81
2022/08/17 09:21:39;;;;;;;;;;;;;;;25.40;100.00;100969.22;6543240;22;20246;-81
2022/08/17 09:24:17;;;;;;;;;;;;;;;25.42;100.00;100961.59;6516648;22;19903;-81
2022/08/17 09:27:08;;;;;;;;;;;;;;;25.24;100.00;100970.72;6542765;22;20763;-81
2022/08/17 09:29:56;;;;;;;;;;;;;;;25.10;100.00;100976.44;6511904;22;19931;-81
2022/08/17 09:32:36;;;;;;;;;;;;;;;25.19;100.00;100979.66;6543591;22;19969;-81
2022/08/17 09:35:14;;;;;;;;;;;;;;;25.34;100.00;100987.38;6516586;22;19903;-80
2022/08/17 09:38:15;;;;;;;;;;;;;;;25.40;100.00;100993.78;6516921;22;20309;-80
2022/08/17 09:40:53;;;;;;;;;;;;;;;25.29;100.00;101004.44;6516552;22;20395;-80
2022/08/17 09:43:26;;;;;;;;;;;;;;;25.10;100.00;101017.38;6543317;22;20345;-80
2022/08/17 09:46:01;;;;;;;;;;;;;;;24.86;100.00;101032.00;6543229;22;19923;-80
2022/08/17 09:48:43;;;;;;;;;;;;;;;24.28;100.00;101047.00;6516808;22;20254;-81
2022/08/17 09:51:18;;;;;;;;;;;;;;;23.54;100.00;101058.66;6543515;22;19907;-81
2022/08/17 09:53:50;;;;;;;;;;;;;;;22.94;100.00;101069.16;6543318;22;19907;-82
2022/08/17 09:56:34;;;;;;;;;;;;;;;22.59;100.00;101067.66;6544423;22;20317;-81
2022/08/17 09:59:18;;;;;;;;;;;;;;;21.92;100.00;101064.31;6544223;22;19910;-85
2022/08/17 10:01:50;;;;;;;;;;;;;;;21.36;100.00;101054.75;6518043;22;19909;-84
2022/08/17 10:04:34;;;;;;;;;;;;;;;21.09;100.00;101037.63;6544920;22;19986;-84
2022/08/17 10:07:12;;;;;;;;;;;;;;;20.95;100.00;101034.09;6544495;22;19907;-84
2022/08/17 10:09:56;;;;;;;;;;;;;;;20.87;100.00;101042.41;6543573;22;19953;-84
2022/08/17 10:12:28;;;;;;;;;;;;;;;20.75;100.00;101051.13;6518456;22;19927;-84
2022/08/17 10:15:10;;;;;;;;;;;;;;;20.63;100.00;101049.22;6546068;22;20207;-84
2022/08/17 10:18:02;;;;;;;;;;;;;;;20.62;100.00;101042.97;6518337;22;19911;-84
2022/08/17 10:20:38;;;;;;;;;;;;;;;20.58;100.00;101047.94;6546623;22;20037;-87
2022/08/17 10:26:33;;;;;;;;;;;;;;;20.64;100.00;101051.72;6449707;23;19956;-86
2022/08/17 10:29:05;;;;;;;;;;;;;;;20.64;100.00;101048.19;6426404;23;19931;-86
2022/08/17 10:31:44;;;;;;;;;;;;;;;20.59;100.00;101049.59;6482964;22;19907;-86
2022/08/17 10:34:18;;;;;;;;;;;;;;;20.64;100.00;101050.91;6525723;22;20230;-85
2022/08/17 10:36:51;;;;;;;;;;;;;;;20.57;100.00;101053.53;6524454;22;19907;-86
2022/08/17 10:39:40;;;;;;;;;;;;;;;20.63;100.00;101054.63;6523164;22;19926;-86
2022/08/17 10:42:20;;;;;;;;;;;;;;;20.63;100.00;101043.78;6521020;22;19999;-86
2022/08/17 10:44:56;;;;;;;;;;;;;;;20.69;100.00;101041.09;6519899;22;20215;-86
2022/08/17 10:47:46;;;;;;;;;;;;;;;20.73;100.00;101030.69;6517006;22;19912;-85
2022/08/17 10:50:36;;;;;;;;;;;;;;;20.82;100.00;101034.88;6511058;22;19910;-85
2022/08/17 10:53:08;;;;;;;;;;;;;;;20.81;100.00;101019.66;6512242;22;19904;-86
2022/08/17 10:55:59;;;;;;;;;;;;;;;20.76;100.00;101012.13;6511440;22;20345;-85
2022/08/17 10:58:37;;;;;;;;;;;;;;;20.67;100.00;101001.69;6510959;22;20045;-85
2022/08/17 11:01:11;;;;;;;;;;;;;;;20.61;100.00;101003.31;6511740;22;19908;-85
2022/08/17 11:03:52;;;;;;;;;;;;;;;20.62;100.00;101009.59;6511479;22;20274;-85
2022/08/17 11:06:29;;;;;;;;;;;;;;;20.76;100.00;101009.44;6511478;22;19904;-85
2022/08/17 11:09:19;;;;;;;;;;;;;;;20.79;100.00;101010.88;6510775;22;19926;-85
2022/08/17 11:11:50;;;;;;;;;;;;;;;20.83;100.00;101012.16;6512683;22;20227;-85
2022/08/17 11:14:24;;;;;;;;;;;;;;;20.83;100.00;101017.56;6512154;22;19907;-84
2022/08/17 11:17:15;;;;;;;;;;;;;;;20.78;100.00;101011.94;6512774;22;20389;-84
2022/08/17 11:20:03;;;;;;;;;;;;;;;20.72;100.00;101019.03;6510668;22;19915;-84
2022/08/17 11:22:56;;;;;;;;;;;;;;;20.71;100.00;101027.34;6513462;22;20483;-83
2022/08/17 11:25:49;;;;;;;;;;;;;;;20.76;100.00;101030.28;6511771;22;19907;-84
2022/08/17 11:28:22;;;;;;;;;;;;;;;20.77;100.00;101034.66;6513573;22;19904;-84
2022/08/17 11:30:55;;;;;;;;;;;;;;;20.74;100.00;101043.22;6511606;22;20023;-84
2022/08/17 11:33:32;;;;;;;;;;;;;;;20.74;100.00;101048.63;6512361;22;19950;-84
2022/08/17 11:36:06;;;;;;;;;;;;;;;20.75;100.00;101059.25;6510940;22;19945;-84
2022/08/17 11:38:52;;;;;;;;;;;;;;;20.77;100.00;101068.03;6510583;22;19918;-84
2022/08/17 11:41:27;;;;;;;;;;;;;;;20.77;100.00;101075.31;6511013;22;19915;-84
2022/08/17 11:44:05;;;;;;;;;;;;;;;20.83;100.00;101071.78;6510313;22;19919;-85
2022/08/17 11:53:28;;;;;;;;;;;;;;;21.21;100.00;101073.09;6445689;23;19904;-85
2022/08/17 11:56:00;;;;;;;;;;;;;;;21.19;100.00;101078.72;6420779;23;20243;-85
2022/08/17 11:58:42;;;;;;;;;;;;;;;21.23;100.00;101092.72;6491407;22;19907;-85
2022/08/17 12:01:23;;;;;;;;;;;;;;;21.20;100.00;101093.97;6510609;22;19935;-84
2022/08/17 12:04:14;;;;;;;;;;;;;;;21.19;100.00;101102.31;6510561;22;19908;-84
2022/08/17 12:06:49;;;;;;;;;;;;;;;21.25;100.00;101096.91;6510748;22;19904;-85
2022/08/17 12:09:23;;;;;;;;;;;;;;;21.16;100.00;101103.56;6510888;22;19904;-85
2022/08/17 12:12:01;;;;;;;;;;;;;;;20.88;100.00;101100.97;6510700;22;19907;-86
2022/08/17 12:14:34;;;;;;;;;;;;;;;20.76;100.00;101098.03;6512157;22;20238;-84
2022/08/17 12:17:07;;;;;;;;;;;;;;;20.76;100.00;101104.28;6512444;22;19908;-84
2022/08/17 12:19:40;;;;;;;;;;;;;;;20.82;100.00;101101.81;6511836;22;19915;-84
2022/08/17 12:22:19;;;;;;;;;;;;;;;20.88;100.00;101106.41;6511716;22;19907;-84
2022/08/17 12:24:50;;;;;;;;;;;;;;;20.89;100.00;101108.09;6510189;22;20029;-84
2022/08/17 12:27:34;;;;;;;;;;;;;;;20.88;100.00;101106.41;6512752;22;19931;-84
2022/08/17 12:30:09;;;;;;;;;;;;;;;20.73;100.00;101109.28;6510529;22;19932;-84
2022/08/17 12:32:46;;;;;;;;;;;;;;;20.67;100.00;101112.78;6512545;22;19915;-85
2022/08/17 12:35:34;;;;;;;;;;;;;;;20.62;100.00;101109.84;6510261;22;19911;-85
2022/08/17 12:38:09;;;;;;;;;;;;;;;20.62;100.00;101093.59;6510996;22;19955;-84
2022/08/17 12:40:51;;;;;;;;;;;;;;;20.62;100.00;101102.59;6510678;22;19928;-85
2022/08/17 12:43:25;;;;;;;;;;;;;;;20.64;100.00;101105.09;6512888;22;19962;-85
2022/08/17 12:45:59;;;;;;;;;;;;;;;20.69;100.00;101099.91;6520595;22;20357;-85
2022/08/17 12:48:31;;;;;;;;;;;;;;;20.63;100.00;101104.25;6545132;22;19983;-84
2022/08/17 12:51:06;;;;;;;;;;;;;;;20.55;100.00;101102.53;6548684;22;19951;-84
2022/08/17 12:53:38;;;;;;;;;;;;;;;20.47;100.00;101102.69;6521642;22;19910;-84
2022/08/17 12:56:12;;;;;;;;;;;;;;;20.30;100.00;101094.09;6549140;22;19907;-84
2022/08/17 12:58:53;;;;;;;;;;;;;;;20.18;100.00;101093.81;6520862;22;19919;-84
2022/08/17 13:01:24;;;;;;;;;;;;;;;20.00;100.00;101097.03;6518645;22;19911;-84
2022/08/17 13:03:59;;;;;;;;;;;;;;;19.86;100.00;101092.53;6518536;22;19911;-85
2022/08/17 13:06:33;;;;;;;;;;;;;;;19.88;100.00;101089.66;6518404;22;19903;-84
2022/08/17 13:09:11;;;;;;;;;;;;;;;19.90;100.00;101095.69;6546010;22;19907;-84
2022/08/17 13:11:50;;;;;;;;;;;;;;;20.00;100.00;101094.31;6544938;22;19904;-84
2022/08/17 13:14:21;;;;;;;;;;;;;;;20.12;100.00;101091.88;6544687;22;19904;-84
2022/08/17 13:17:00;;;;;;;;;;;;;;;20.25;100.00;101092.97;6545004;22;19904;-84
2022/08/17 13:19:37;;;;;;;;;;;;;;;20.42;100.00;101088.06;6517397;22;19915;-84
2022/08/17 13:22:10;;;;;;;;;;;;;;;20.52;100.00;101089.38;6544532;22;20018;-84
2022/08/17 13:24:51;;;;;;;;;;;;;;;20.49;100.00;101089.75;6517497;22;19907;-84
2022/08/17 13:27:24;;;;;;;;;;;;;;;20.39;100.00;101083.91;6517879;22;19919;-84
2022/08/17 13:29:58;;;;;;;;;;;;;;;20.33;100.00;101079.28;6517417;22;19930;-84
2022/08/17 13:32:29;;;;;;;;;;;;;;;20.34;100.00;101081.78;6517179;22;20435;-84
2022/08/17 13:35:21;;;;;;;;;;;;;;;20.38;100.00;101077.63;6517372;22;19908;-84
2022/08/17 13:38:00;;;;;;;;;;;;;;;20.41;100.00;101079.13;6516787;22;20005;-83
2022/08/17 13:40:36;;;;;;;;;;;;;;;20.41;100.00;101071.00;6516986;22;19912;-83
2022/08/17 13:43:08;;;;;;;;;;;;;;;20.38;100.00;101072.22;6516122;22;20329;-84
2022/08/17 13:45:43;;;;;;;;;;;;;;;20.36;100.00;101068.88;6543549;22;20301;-84